createdAt,value
2022-12-24T00:01:33.092Z,100688.69
2022-12-24T00:03:59.560Z,100679.88
2022-12-24T00:06:25.988Z,100687.84
2022-12-24T00:08:52.486Z,100687.03
2022-12-24T00:11:19.706Z,100704.44
2022-12-24T00:13:46.301Z,100709.66
2022-12-24T00:16:12.860Z,100700.97
2022-12-24T00:18:45.547Z,100704.63
2022-12-24T00:21:13.073Z,100706.31
2022-12-24T00:23:40.423Z,100720.25
2022-12-24T00:26:06.846Z,100723.75
2022-12-24T00:28:33.191Z,100726.38
2022-12-24T00:30:59.542Z,100718.50
2022-12-24T00:33:26.062Z,100729.00
2022-12-24T00:35:53.120Z,100724.59
2022-12-24T00:38:19.616Z,100749.13
2022-12-24T00:40:46.074Z,100737.88
2022-12-24T00:43:12.550Z,100742.19
2022-12-24T00:45:38.921Z,100747.53
2022-12-24T00:48:05.605Z,100743.28
2022-12-24T00:50:31.961Z,100755.56
2022-12-24T00:52:58.337Z,100756.50
2022-12-24T00:55:24.713Z,100762.59
2022-12-24T00:57:51.092Z,100767.00
2022-12-24T01:00:17.987Z,100780.13
2022-12-24T01:02:44.848Z,100774.88
2022-12-24T01:05:11.868Z,100788.91
2022-12-24T01:07:44.051Z,100785.56
2022-12-24T01:10:13.038Z,100790.78
2022-12-24T01:12:39.527Z,100790.78
2022-12-24T01:15:06.687Z,100800.50
2022-12-24T01:17:34.142Z,100813.72
2022-12-24T01:20:00.893Z,100817.38
2022-12-24T01:22:27.412Z,100823.53
2022-12-24T01:24:53.786Z,100826.25
2022-12-24T01:27:20.263Z,100831.72
2022-12-24T01:29:46.623Z,100838.00
2022-12-24T01:32:12.978Z,100835.47
2022-12-24T01:34:39.347Z,100831.22
2022-12-24T01:37:05.762Z,100838.31
2022-12-24T01:39:32.498Z,100841.03
2022-12-24T01:42:17.587Z,100843.84
2022-12-24T01:44:51.347Z,100848.31
2022-12-24T01:47:19.888Z,100834.41
2022-12-24T01:50:17.726Z,100838.06
2022-12-24T01:52:44.268Z,100855.56
2022-12-24T01:55:15.462Z,100862.84
2022-12-24T01:57:46.432Z,100862.16
2022-12-24T02:00:15.751Z,100863.16
2022-12-24T02:02:46.377Z,100865.88
2022-12-24T02:05:18.776Z,100870.19
2022-12-24T02:07:46.399Z,100877.19
2022-12-24T02:10:14.109Z,100880.81
2022-12-24T02:12:42.145Z,100884.41
2022-12-24T02:15:11.462Z,100888.03
2022-12-24T02:17:49.632Z,100883.09
2022-12-24T02:20:50.062Z,100889.25
2022-12-24T02:23:35.386Z,100904.06
2022-12-24T02:26:52.911Z,100903.38
2022-12-24T02:29:47.308Z,100909.63
2022-12-24T02:32:22.879Z,100909.75
2022-12-24T02:35:02.419Z,100912.38
2022-12-24T02:37:34.948Z,100917.63
2022-12-24T02:40:13.830Z,100902.84
2022-12-24T02:42:46.426Z,100921.25
2022-12-24T02:45:28.984Z,100911.84
2022-12-24T02:47:56.396Z,100911.94
2022-12-24T02:50:23.718Z,100913.78
2022-12-24T02:52:50.788Z,100920.88
2022-12-24T02:55:19.968Z,100918.19
2022-12-24T02:58:02.548Z,100928.88
2022-12-24T03:00:40.882Z,100932.50
2022-12-24T03:03:28.516Z,100935.22
2022-12-24T03:06:20.167Z,100937.75
2022-12-24T03:08:58.997Z,100925.72
2022-12-24T03:11:25.784Z,100942.16
2022-12-24T03:13:55.155Z,100934.28
2022-12-24T03:16:24.828Z,100936.81
2022-12-24T03:18:54.308Z,100932.66
2022-12-24T03:21:35.592Z,100928.34
2022-12-24T03:24:02.556Z,100931.84
2022-12-24T03:26:31.049Z,100942.38
2022-12-24T03:28:57.485Z,100940.53
2022-12-24T03:31:24.083Z,100948.56
2022-12-24T03:33:50.785Z,100954.72
2022-12-24T03:36:17.374Z,100947.69
2022-12-24T03:38:43.890Z,100958.25
2022-12-24T03:41:10.390Z,100951.31
2022-12-24T03:43:36.774Z,100957.47
2022-12-24T03:46:06.216Z,100955.75
2022-12-24T03:48:35.146Z,100960.13
2022-12-24T03:51:02.543Z,100953.28
2022-12-24T03:53:28.933Z,100961.84
2022-12-24T03:55:55.308Z,100960.13
2022-12-24T03:58:21.657Z,100962.84
2022-12-24T04:00:48.025Z,100969.69
2022-12-24T04:03:14.596Z,100963.56
2022-12-24T04:05:41.066Z,100960.03
2022-12-24T04:08:07.384Z,100982.53
2022-12-24T04:10:33.725Z,100973.75
2022-12-24T04:13:00.103Z,100978.03
2022-12-24T04:15:26.572Z,100971.88
2022-12-24T04:17:52.973Z,100979.59
2022-12-24T04:20:19.592Z,100970.81
2022-12-24T04:22:45.988Z,100967.25
2022-12-24T04:25:12.305Z,100975.91
2022-12-24T04:27:38.694Z,100984.50
2022-12-24T04:30:05.801Z,100983.59
2022-12-24T04:32:32.176Z,100984.47
2022-12-24T04:34:58.505Z,100992.25
2022-12-24T04:37:24.931Z,100981.75
2022-12-24T04:39:51.308Z,100980.84
2022-12-24T04:42:17.655Z,100994.69
2022-12-24T04:44:44.063Z,100997.25
2022-12-24T04:47:10.887Z,100997.19
2022-12-24T04:49:37.369Z,100994.56
2022-12-24T04:52:03.757Z,100991.94
2022-12-24T04:54:30.118Z,100995.47
2022-12-24T04:56:56.433Z,100994.56
2022-12-24T04:59:22.789Z,100998.09
2022-12-24T05:01:49.285Z,101001.47
2022-12-24T05:04:15.681Z,101012.81
2022-12-24T05:06:42.069Z,101004.09
2022-12-24T05:09:08.418Z,101007.50
2022-12-24T05:11:34.833Z,101010.97
2022-12-24T05:14:01.275Z,101006.66
2022-12-24T05:16:27.697Z,101004.78
2022-12-24T05:18:54.508Z,101000.41
2022-12-24T05:21:23.244Z,100999.47
2022-12-24T05:24:08.595Z,100996.84
2022-12-24T05:26:37.726Z,101009.03
2022-12-24T05:29:05.537Z,101010.75
2022-12-24T05:31:33.755Z,101015.16
2022-12-24T05:34:01.290Z,101019.53
2022-12-24T05:36:27.862Z,101008.19
2022-12-24T05:38:54.289Z,101016.06
2022-12-24T05:41:20.802Z,101024.75
2022-12-24T05:43:47.342Z,101035.25
2022-12-24T05:46:16.790Z,101025.63
2022-12-24T05:48:43.207Z,101019.53
2022-12-24T05:51:12.616Z,101020.38
2022-12-24T05:53:40.208Z,101015.06
2022-12-24T05:56:13.002Z,101024.63
2022-12-24T05:58:40.607Z,101023.72
2022-12-24T06:01:08.330Z,101026.34
2022-12-24T06:03:34.814Z,101034.13
2022-12-24T06:06:03.366Z,101034.94
2022-12-24T06:08:31.212Z,101041.06
2022-12-24T06:11:03.688Z,101031.41
2022-12-24T06:13:31.242Z,101034.03
2022-12-24T06:15:59.714Z,101032.25
2022-12-24T06:18:26.748Z,101036.66
2022-12-24T06:20:55.871Z,101041.88
2022-12-24T06:23:22.970Z,101057.63
2022-12-24T06:25:49.543Z,101056.69
2022-12-24T06:28:16.472Z,101049.66
2022-12-24T06:30:47.610Z,101050.53
2022-12-24T06:33:14.584Z,101055.78
2022-12-24T06:35:41.380Z,101060.84
2022-12-24T06:38:07.768Z,101053.91
2022-12-24T06:40:34.094Z,101061.88
2022-12-24T06:43:00.490Z,101061.03
2022-12-24T06:45:26.901Z,101067.94
2022-12-24T06:47:53.301Z,101069.63
2022-12-24T06:50:19.630Z,101069.63
2022-12-24T06:52:46.044Z,101074.97
2022-12-24T06:55:12.381Z,101086.25
2022-12-24T06:57:38.776Z,101075.81
2022-12-24T07:00:07.565Z,101081.00
2022-12-24T07:02:34.036Z,101070.44
2022-12-24T07:05:00.559Z,101074.75
2022-12-24T07:07:26.992Z,101080.81
2022-12-24T07:09:53.329Z,101077.28
2022-12-24T07:12:19.650Z,101086.91
2022-12-24T07:14:45.991Z,101090.47
2022-12-24T07:17:12.526Z,101091.41
2022-12-24T07:19:38.913Z,101093.16
2022-12-24T07:22:10.216Z,101097.56
2022-12-24T07:24:39.828Z,101088.91
2022-12-24T07:27:06.202Z,101099.34
2022-12-24T07:29:32.526Z,101096.84
2022-12-24T07:31:59.006Z,101111.75
2022-12-24T07:34:25.398Z,101118.75
2022-12-24T07:36:51.821Z,101119.69
2022-12-24T07:39:18.198Z,101128.38
2022-12-24T07:41:44.595Z,101146.66
2022-12-24T07:44:14.728Z,101150.16
2022-12-24T07:46:41.285Z,101150.97
2022-12-24T07:49:08.006Z,101168.34
2022-12-24T07:51:34.349Z,101168.34
2022-12-24T07:54:00.715Z,101168.34
2022-12-24T07:56:27.136Z,101173.56
2022-12-24T07:58:53.471Z,101181.44
2022-12-24T08:01:19.924Z,101195.38
2022-12-24T08:03:46.708Z,101199.78
2022-12-24T08:06:13.231Z,101198.00
2022-12-24T08:08:39.654Z,101200.63
2022-12-24T08:11:06.893Z,101204.13
2022-12-24T08:13:33.682Z,101209.38
2022-12-24T08:16:00.155Z,101210.28
2022-12-24T08:18:26.606Z,101213.75
2022-12-24T08:20:52.987Z,101215.53
2022-12-24T08:23:19.319Z,101222.47
2022-12-24T08:25:47.181Z,101228.63
2022-12-24T08:28:16.467Z,101228.63
2022-12-24T08:30:43.452Z,101225.19
2022-12-24T08:33:10.357Z,101233.88
2022-12-24T08:35:37.172Z,101228.63
2022-12-24T08:38:03.658Z,101226.81
2022-12-24T08:40:30.083Z,101229.34
2022-12-24T08:42:56.691Z,101237.13
2022-12-24T08:45:23.132Z,101235.34
2022-12-24T08:47:49.533Z,101244.06
2022-12-24T08:50:16.184Z,101244.00
2022-12-24T08:52:42.569Z,101255.31
2022-12-24T08:55:09.214Z,101257.03
2022-12-24T08:57:37.273Z,101251.72
2022-12-24T09:00:06.692Z,101259.53
2022-12-24T09:02:33.405Z,101259.53
2022-12-24T09:04:59.836Z,101262.91
2022-12-24T09:07:26.352Z,101272.41
2022-12-24T09:09:52.743Z,101279.34
2022-12-24T09:12:19.132Z,101278.44
2022-12-24T09:14:45.635Z,101288.84
2022-12-24T09:17:12.020Z,101290.63
2022-12-24T09:19:38.587Z,101296.56
2022-12-24T09:22:04.946Z,101289.47
2022-12-24T09:24:31.706Z,101299.88
2022-12-24T09:26:58.330Z,101294.56
2022-12-24T09:29:25.121Z,101303.31
2022-12-24T09:31:51.677Z,101306.72
2022-12-24T09:34:18.083Z,101308.41
2022-12-24T09:36:46.145Z,101317.13
2022-12-24T09:39:12.900Z,101317.06
2022-12-24T09:42:06.040Z,101327.47
2022-12-24T09:44:47.195Z,101333.50
2022-12-24T09:47:26.316Z,101338.75
2022-12-24T09:49:56.651Z,101348.31
2022-12-24T09:52:45.505Z,101346.53
2022-12-24T09:55:25.400Z,101342.13
2022-12-24T09:57:54.508Z,101336.13
2022-12-24T10:00:24.394Z,101335.25
2022-12-24T10:02:51.106Z,101344.84
2022-12-24T10:05:22.706Z,101348.25
2022-12-24T10:08:30.553Z,101342.09
2022-12-24T10:11:38.631Z,101348.97
2022-12-24T10:14:26.363Z,101348.16
2022-12-24T10:17:21.562Z,101350.78
2022-12-24T10:19:59.584Z,101356.03
2022-12-24T10:22:58.065Z,101351.59
2022-12-24T10:25:49.476Z,101355.03
2022-12-24T10:28:20.530Z,101351.50
2022-12-24T10:30:50.149Z,101360.09
2022-12-24T10:33:26.514Z,101343.28
2022-12-24T10:35:56.363Z,101343.13
2022-12-24T10:38:22.909Z,101356.09
2022-12-24T10:40:52.976Z,101350.69
2022-12-24T10:43:22.225Z,101353.13
2022-12-24T10:45:56.087Z,101352.88
2022-12-24T10:48:33.394Z,101359.69
2022-12-24T10:51:06.262Z,101357.84
2022-12-24T10:54:00.516Z,101351.75
2022-12-24T10:56:28.120Z,101354.44
2022-12-24T10:58:55.499Z,101360.63
2022-12-24T11:01:49.718Z,101366.78
2022-12-24T11:04:24.640Z,101362.53
2022-12-24T11:07:03.012Z,101367.78
2022-12-24T11:09:32.971Z,101373.03
2022-12-24T11:12:08.416Z,101373.88
2022-12-24T11:14:38.739Z,101368.63
2022-12-24T11:17:05.800Z,101365.06
2022-12-24T11:19:35.391Z,101360.75
2022-12-24T11:22:22.805Z,101364.25
2022-12-24T11:24:57.867Z,101367.78
2022-12-24T11:27:38.818Z,101369.50
2022-12-24T11:30:30.823Z,101372.03
2022-12-24T11:33:00.042Z,101370.25
2022-12-24T11:35:27.593Z,101378.13
2022-12-24T11:37:59.859Z,101381.66
2022-12-24T11:40:35.483Z,101378.19
2022-12-24T11:43:03.613Z,101378.28
2022-12-24T11:45:32.453Z,101382.66
2022-12-24T11:48:00.101Z,101379.19
2022-12-24T11:50:29.678Z,101381.00
2022-12-24T11:53:19.869Z,101377.50
2022-12-24T11:55:54.981Z,101392.31
2022-12-24T11:58:42.854Z,101396.72
2022-12-24T12:01:21.787Z,101393.16
2022-12-24T12:04:05.024Z,101394.03
2022-12-24T12:06:34.177Z,101392.16
2022-12-24T12:09:05.779Z,101390.41
2022-12-24T12:11:35.560Z,101393.81
2022-12-24T12:14:03.846Z,101406.00
2022-12-24T12:17:03.735Z,101408.50
2022-12-24T12:19:38.400Z,101417.28
2022-12-24T12:22:11.393Z,101418.22
2022-12-24T12:24:45.502Z,101417.28
2022-12-24T12:27:20.427Z,101426.00
2022-12-24T12:29:55.604Z,101425.16
2022-12-24T12:32:38.999Z,101425.16
2022-12-24T12:35:14.128Z,101427.78
2022-12-24T12:37:45.442Z,101426.09
2022-12-24T12:40:17.613Z,101424.38
2022-12-24T12:43:01.367Z,101424.38
2022-12-24T12:45:49.710Z,101427.06
2022-12-24T12:48:24.923Z,101427.06
2022-12-24T12:51:04.773Z,101436.75
2022-12-24T12:54:14.164Z,101436.66
2022-12-24T12:56:48.427Z,101439.22
2022-12-24T12:59:14.838Z,101443.53
2022-12-24T13:01:54.285Z,101441.75
2022-12-24T13:04:39.571Z,101449.72
2022-12-24T13:07:38.381Z,101447.09
2022-12-24T13:10:41.740Z,101446.25
2022-12-24T13:13:39.377Z,101455.88
2022-12-24T13:16:33.922Z,101454.19
2022-12-24T13:19:38.457Z,101456.88
2022-12-24T13:22:13.501Z,101449.91
2022-12-24T13:24:40.052Z,101442.00
2022-12-24T13:27:17.428Z,101458.56
2022-12-24T13:30:07.266Z,101456.75
2022-12-24T13:32:51.345Z,101465.38
2022-12-24T13:35:20.628Z,101467.97
2022-12-24T13:37:48.866Z,101475.75
2022-12-24T13:40:15.792Z,101482.72
2022-12-24T13:43:06.470Z,101487.88
2022-12-24T13:45:38.996Z,101492.25
2022-12-24T13:48:11.176Z,101486.09
2022-12-24T13:50:52.848Z,101501.00
2022-12-24T13:53:41.973Z,101493.22
2022-12-24T13:56:14.420Z,101490.59
2022-12-24T13:58:45.502Z,101494.13
2022-12-24T14:01:16.321Z,101502.91
2022-12-24T14:03:45.503Z,101497.75
2022-12-24T14:06:23.353Z,101500.38
2022-12-24T14:08:53.431Z,101514.41
2022-12-24T14:11:22.633Z,101513.50
2022-12-24T14:13:48.977Z,101512.59
2022-12-24T14:16:18.791Z,101513.41
2022-12-24T14:19:25.073Z,101518.59
2022-12-24T14:22:18.601Z,101521.28
2022-12-24T14:24:53.633Z,101524.75
2022-12-24T14:27:25.604Z,101523.84
2022-12-24T14:29:57.801Z,101523.09
2022-12-24T14:32:24.177Z,101517.84
2022-12-24T14:35:21.628Z,101520.47
2022-12-24T14:38:00.491Z,101528.34
2022-12-24T14:40:30.448Z,101530.00
2022-12-24T14:43:14.263Z,101522.13
2022-12-24T14:45:51.717Z,101537.88
2022-12-24T14:48:34.344Z,101536.13
2022-12-24T14:51:06.648Z,101537.03
2022-12-24T14:53:59.086Z,101540.59
2022-12-24T14:56:25.644Z,101546.81
2022-12-24T14:58:52.386Z,101553.06
2022-12-24T15:01:26.529Z,101559.22
2022-12-24T15:04:09.305Z,101554.06
2022-12-24T15:06:49.233Z,101558.47
2022-12-24T15:09:20.202Z,101558.50
2022-12-24T15:11:49.407Z,101563.75
2022-12-24T15:14:16.493Z,101574.25
2022-12-24T15:16:54.625Z,101570.88
2022-12-24T15:19:27.105Z,101572.63
2022-12-24T15:21:54.830Z,101577.84
2022-12-24T15:24:36.646Z,101578.75
2022-12-24T15:27:15.296Z,101582.28
2022-12-24T15:29:47.415Z,101580.66
2022-12-24T15:32:15.864Z,101588.66
2022-12-24T15:34:44.804Z,101587.94
2022-12-24T15:37:29.069Z,101594.19
2022-12-24T15:39:58.011Z,101598.56
2022-12-24T15:42:26.173Z,101588.22
2022-12-24T15:45:12.917Z,101596.16
2022-12-24T15:47:47.255Z,101601.31
2022-12-24T15:50:28.389Z,101603.94
2022-12-24T15:53:19.471Z,101603.13
2022-12-24T15:55:45.471Z,101612.72
2022-12-24T15:58:25.558Z,101614.53
2022-12-24T16:01:14.317Z,101618.91
2022-12-24T16:04:01.492Z,101612.88
2022-12-24T16:06:28.395Z,101621.66
2022-12-24T16:08:56.403Z,101620.81
2022-12-24T16:11:24.709Z,101612.09
2022-12-24T16:13:51.097Z,101615.63
2022-12-24T16:16:32.909Z,101613.13
2022-12-24T16:19:01.169Z,101614.13
2022-12-24T16:21:34.518Z,101615.09
2022-12-24T16:24:15.169Z,101610.91
2022-12-24T16:26:41.573Z,101613.66
2022-12-24T16:29:08.453Z,101614.84
2022-12-24T16:31:38.713Z,101614.19
2022-12-24T16:34:05.886Z,101616.72
2022-12-24T16:36:32.897Z,101620.44
2022-12-24T16:39:18.579Z,101617.16
2022-12-24T16:42:03.198Z,101625.97
2022-12-24T16:44:29.674Z,101627.13
2022-12-24T16:46:56.391Z,101624.44
2022-12-24T16:49:23.460Z,101636.56
2022-12-24T16:51:49.896Z,101624.25
2022-12-24T16:54:16.318Z,101636.56
2022-12-24T16:56:43.804Z,101633.34
2022-12-24T16:59:18.719Z,101630.66
2022-12-24T17:01:45.311Z,101630.66
2022-12-24T17:04:11.906Z,101628.84
2022-12-24T17:06:38.287Z,101628.91
2022-12-24T17:09:05.456Z,101635.06
2022-12-24T17:11:32.255Z,101627.25
2022-12-24T17:13:58.618Z,101633.47
2022-12-24T17:16:25.086Z,101631.94
2022-12-24T17:18:52.101Z,101638.47
2022-12-24T17:21:19.174Z,101632.41
2022-12-24T17:23:45.852Z,101631.50
2022-12-24T17:26:15.250Z,101637.94
2022-12-24T17:28:42.953Z,101638.22
2022-12-24T17:31:11.352Z,101631.38
2022-12-24T17:33:37.810Z,101627.34
2022-12-24T17:36:04.833Z,101632.44
2022-12-24T17:38:31.230Z,101626.38
2022-12-24T17:41:06.468Z,101629.00
2022-12-24T17:43:36.502Z,101617.50
2022-12-24T17:46:07.461Z,101619.41
2022-12-24T17:48:33.925Z,101612.63
2022-12-24T17:51:07.871Z,101623.28
2022-12-24T17:53:35.386Z,101612.91
2022-12-24T17:56:02.074Z,101617.25
2022-12-24T17:58:29.680Z,101616.63
2022-12-24T18:00:57.002Z,101617.41
2022-12-24T18:03:23.905Z,101616.56
2022-12-24T18:05:51.760Z,101614.19
2022-12-24T18:08:19.340Z,101623.91
2022-12-24T18:10:46.629Z,101631.06
2022-12-24T18:13:19.108Z,101629.44
2022-12-24T18:15:45.964Z,101633.75
2022-12-24T18:18:12.364Z,101638.25
2022-12-24T18:20:46.019Z,101625.16
2022-12-24T18:23:13.259Z,101627.00
2022-12-24T18:25:39.643Z,101629.56
2022-12-24T18:28:05.985Z,101628.59
2022-12-24T18:30:32.328Z,101625.16
2022-12-24T18:33:00.329Z,101629.50
2022-12-24T18:35:26.876Z,101631.44
2022-12-24T18:37:53.431Z,101633.31
2022-12-24T18:40:20.493Z,101635.91
2022-12-24T18:42:46.880Z,101637.00
2022-12-24T18:45:13.408Z,101637.97
2022-12-24T18:47:39.779Z,101639.84
2022-12-24T18:50:07.408Z,101630.34
2022-12-24T18:52:35.075Z,101645.19
2022-12-24T18:55:01.499Z,101649.69
2022-12-24T18:57:27.940Z,101650.53
2022-12-24T18:59:55.856Z,101651.41
2022-12-24T19:02:22.319Z,101643.63
2022-12-24T19:04:48.824Z,101645.50
2022-12-24T19:07:15.246Z,101639.31
2022-12-24T19:09:41.667Z,101640.28
2022-12-24T19:12:08.136Z,101636.88
2022-12-24T19:14:34.544Z,101622.97
2022-12-24T19:17:00.923Z,101623.19
2022-12-24T19:19:27.542Z,101624.75
2022-12-24T19:21:53.937Z,101624.69
2022-12-24T19:24:20.382Z,101622.97
2022-12-24T19:26:46.789Z,101623.09
2022-12-24T19:29:13.166Z,101624.13
2022-12-24T19:31:40.601Z,101638.09
2022-12-24T19:34:07.109Z,101639.97
2022-12-24T19:36:34.600Z,101635.56
2022-12-24T19:39:01.086Z,101630.53
2022-12-24T19:41:29.306Z,101640.03
2022-12-24T19:43:58.111Z,101636.66
2022-12-24T19:46:33.133Z,101645.41
2022-12-24T19:49:02.325Z,101634.88
2022-12-24T19:51:29.435Z,101637.28
2022-12-24T19:53:58.189Z,101639.91
2022-12-24T19:56:26.258Z,101648.03
2022-12-24T19:58:54.191Z,101641.03
2022-12-24T20:01:23.509Z,101650.44
2022-12-24T20:03:51.604Z,101648.66
2022-12-24T20:06:21.605Z,101652.16
2022-12-24T20:08:48.287Z,101645.25
2022-12-24T20:11:17.616Z,101651.41
2022-12-24T20:13:44.701Z,101652.09
2022-12-24T20:16:18.044Z,101655.53
2022-12-24T20:18:44.575Z,101652.66
2022-12-24T20:21:13.152Z,101655.25
2022-12-24T20:23:40.757Z,101650.66
2022-12-24T20:26:10.608Z,101652.25
2022-12-24T20:28:37.357Z,101649.47
2022-12-24T20:31:16.928Z,101658.03
2022-12-24T20:33:44.375Z,101660.56
2022-12-24T20:36:12.169Z,101653.53
2022-12-24T20:38:39.195Z,101653.47
2022-12-24T20:41:06.401Z,101656.03
2022-12-24T20:43:37.226Z,101649.88
2022-12-24T20:46:06.529Z,101653.28
2022-12-24T20:48:33.510Z,101648.97
2022-12-24T20:50:59.950Z,101640.19
2022-12-24T20:53:26.761Z,101634.06
2022-12-24T20:55:53.910Z,101622.75
2022-12-24T20:58:20.550Z,101625.22
2022-12-24T21:00:48.185Z,101611.28
2022-12-24T21:03:15.671Z,101632.25
2022-12-24T21:05:42.573Z,101627.00
2022-12-24T21:08:10.164Z,101622.53
2022-12-24T21:10:37.643Z,101627.00
2022-12-24T21:13:04.718Z,101618.25
2022-12-24T21:15:35.031Z,101620.06
2022-12-24T21:18:04.661Z,101627.78
2022-12-24T21:20:31.367Z,101628.72
2022-12-24T21:23:01.031Z,101621.72
2022-12-24T21:25:27.990Z,101623.47
2022-12-24T21:27:55.565Z,101619.94
2022-12-24T21:30:22.526Z,101608.63
2022-12-24T21:32:48.987Z,101599.13
2022-12-24T21:35:15.655Z,101604.34
2022-12-24T21:37:42.319Z,101614.75
2022-12-24T21:40:09.979Z,101616.47
2022-12-24T21:42:37.030Z,101607.78
2022-12-24T21:45:04.839Z,101610.41
2022-12-24T21:47:31.222Z,101609.53
2022-12-24T21:50:16.372Z,101612.13
2022-12-24T21:52:42.797Z,101608.69
2022-12-24T21:55:09.162Z,101603.44
2022-12-24T21:57:53.781Z,101600.81
2022-12-24T22:00:30.502Z,101602.63
2022-12-24T22:02:58.578Z,101600.00
2022-12-24T22:05:26.192Z,101595.69
2022-12-24T22:08:12.742Z,101596.56
2022-12-24T22:10:58.049Z,101598.38
2022-12-24T22:13:24.985Z,101603.66
2022-12-24T22:15:53.121Z,101607.19
2022-12-24T22:18:22.461Z,101610.63
2022-12-24T22:20:49.218Z,101608.06
2022-12-24T22:23:16.681Z,101595.94
2022-12-24T22:25:46.119Z,101596.78
2022-12-24T22:28:12.485Z,101584.53
2022-12-24T22:30:40.908Z,101588.88
2022-12-24T22:33:08.424Z,101588.03
2022-12-24T22:35:41.236Z,101590.69
2022-12-24T22:38:09.200Z,101600.31
2022-12-24T22:40:36.031Z,101599.47
2022-12-24T22:43:02.351Z,101603.81
2022-12-24T22:45:28.789Z,101599.47
2022-12-24T22:47:55.335Z,101609.94
2022-12-24T22:50:21.859Z,101605.66
2022-12-24T22:52:48.270Z,101603.06
2022-12-24T22:55:14.645Z,101611.81
2022-12-24T22:57:41.004Z,101619.72
2022-12-24T23:00:13.653Z,101623.25
2022-12-24T23:02:40.121Z,101631.09
2022-12-24T23:05:06.876Z,101628.47
2022-12-24T23:07:33.265Z,101636.31
2022-12-24T23:09:59.857Z,101631.09
2022-12-24T23:12:44.582Z,101631.88
2022-12-24T23:15:11.515Z,101634.47
2022-12-24T23:17:37.914Z,101636.31
2022-12-24T23:20:04.757Z,101637.22
2022-12-24T23:22:31.160Z,101635.50
2022-12-24T23:24:57.589Z,101631.19
2022-12-24T23:27:24.079Z,101631.19
2022-12-24T23:29:50.492Z,101626.81
2022-12-24T23:32:16.852Z,101627.66
2022-12-24T23:34:43.499Z,101624.25
2022-12-24T23:37:09.887Z,101633.78
2022-12-24T23:39:36.275Z,101643.38
2022-12-24T23:42:02.686Z,101645.97
2022-12-24T23:44:32.518Z,101650.31
2022-12-24T23:46:59.443Z,101637.22
2022-12-24T23:49:26.741Z,101624.97
2022-12-24T23:51:53.186Z,101624.13
2022-12-24T23:54:19.718Z,101615.38
2022-12-24T23:56:46.047Z,101608.44
2022-12-24T23:59:12.441Z,101598.81
